Terminal Aerodrome Forecast
Issued by NWS

Home | Current Version | Previous Version | Text Only | Print | Product List | Glossary On
Versions: 1 2 3 4 5 6 7 8 9 10 11 12 13 14 15 16 17
000
FTUS43 KJKL 271139
TAFSME
TAF
KSME 271139Z 2712/2812 VRB06KT P6SM VCSH OVC060
     FM271600 17007KT P6SM BKN090
     FM272000 20010KT P6SM BKN080
     FM280200 17004KT P6SM VCSH BKN110
     FM280900 16004KT P6SM VCSH BKN070 WS015/20035KT=

USA.gov is the U.S. government's official web portal to all federal, state and local government web resources and services.